createdAt,value
2022-10-04T00:01:55.635Z,13.70
2022-10-04T00:04:28.963Z,13.70
2022-10-04T00:07:05.092Z,13.70
2022-10-04T00:09:49.818Z,13.70
2022-10-04T00:12:22.969Z,13.80
2022-10-04T00:14:52.617Z,13.80
2022-10-04T00:17:27.440Z,13.80
2022-10-04T00:19:55.720Z,13.90
2022-10-04T00:22:33.169Z,13.90
2022-10-04T00:25:13.782Z,13.90
2022-10-04T00:28:19.576Z,13.90
2022-10-04T00:31:32.622Z,13.90
2022-10-04T00:34:09.068Z,13.90
2022-10-04T00:36:47.047Z,13.90
2022-10-04T00:39:17.381Z,13.90
2022-10-04T00:41:47.432Z,13.90
2022-10-04T00:44:47.193Z,13.90
2022-10-04T00:47:31.793Z,13.90
2022-10-04T00:50:18.772Z,13.90
2022-10-04T00:52:54.946Z,13.90
2022-10-04T00:55:48.036Z,13.90
2022-10-04T00:58:29.782Z,13.90
2022-10-04T01:00:58.796Z,13.90
2022-10-04T01:03:33.182Z,13.90
2022-10-04T01:06:05.527Z,13.90
2022-10-04T01:08:36.547Z,13.90
2022-10-04T01:11:13.864Z,13.90
2022-10-04T01:14:01.572Z,13.90
2022-10-04T01:16:38.672Z,14.00
2022-10-04T01:19:27.162Z,14.00
2022-10-04T01:22:10.614Z,14.00
2022-10-04T01:24:43.534Z,14.00
2022-10-04T01:27:35.552Z,14.00
2022-10-04T01:30:07.682Z,14.00
2022-10-04T01:32:34.871Z,14.00
2022-10-04T01:35:02.387Z,14.00
2022-10-04T01:37:29.781Z,14.00
2022-10-04T01:40:22.556Z,14.00
2022-10-04T01:42:55.093Z,14.00
2022-10-04T01:45:35.954Z,14.00
2022-10-04T01:48:10.795Z,14.00
2022-10-04T01:50:41.260Z,14.00
2022-10-04T01:53:22.941Z,14.10
2022-10-04T01:55:55.270Z,14.10
2022-10-04T01:58:34.294Z,14.10
2022-10-04T02:01:19.514Z,14.20
2022-10-04T02:03:59.790Z,14.20
2022-10-04T02:06:29.079Z,14.20
2022-10-04T02:08:59.427Z,14.30
2022-10-04T02:11:30.343Z,14.30
2022-10-04T02:13:58.195Z,14.40
2022-10-04T02:16:26.542Z,14.40
2022-10-04T02:18:55.261Z,14.50
2022-10-04T02:21:23.913Z,14.50
2022-10-04T02:23:52.882Z,14.60
2022-10-04T02:26:21.483Z,14.70
2022-10-04T02:28:49.583Z,14.70
2022-10-04T02:31:41.327Z,14.70
2022-10-04T02:34:08.944Z,14.80
2022-10-04T02:36:37.657Z,14.80
2022-10-04T02:39:16.357Z,14.90
2022-10-04T02:42:00.865Z,14.90
2022-10-04T02:44:42.727Z,14.90
2022-10-04T02:47:09.839Z,14.90
2022-10-04T02:49:44.127Z,14.90
2022-10-04T02:52:24.843Z,14.90
2022-10-04T02:55:02.780Z,15.00
2022-10-04T02:57:32.784Z,15.00
2022-10-04T03:00:16.443Z,15.00
2022-10-04T03:03:22.087Z,15.00
2022-10-04T03:06:01.002Z,15.00
2022-10-04T03:08:31.230Z,15.00
2022-10-04T03:10:59.936Z,15.00
2022-10-04T03:13:28.185Z,15.00
2022-10-04T03:15:55.589Z,14.90
2022-10-04T03:18:23.993Z,15.00
2022-10-04T03:20:51.112Z,15.00
2022-10-04T03:23:20.182Z,15.00
2022-10-04T03:26:14.912Z,15.00
2022-10-04T03:28:42.765Z,15.00
2022-10-04T03:31:10.988Z,15.00
2022-10-04T03:33:38.217Z,15.00
2022-10-04T03:36:05.500Z,15.00
2022-10-04T03:38:35.865Z,15.00
2022-10-04T03:41:03.554Z,15.00
2022-10-04T03:43:34.236Z,15.10
2022-10-04T03:46:05.407Z,15.10
2022-10-04T03:48:36.905Z,15.00
2022-10-04T03:51:07.965Z,15.00
2022-10-04T03:53:43.372Z,15.00
2022-10-04T03:56:18.824Z,15.10
2022-10-04T03:58:47.133Z,15.00
2022-10-04T04:01:35.095Z,15.00
2022-10-04T04:04:23.786Z,15.00
2022-10-04T04:07:12.400Z,15.00
2022-10-04T04:10:01.350Z,15.10
2022-10-04T04:12:42.469Z,15.10
2022-10-04T04:15:13.618Z,15.10
2022-10-04T04:17:49.780Z,15.10
2022-10-04T04:20:28.842Z,15.10
2022-10-04T04:23:04.185Z,15.20
2022-10-04T04:25:34.853Z,15.20
2022-10-04T04:28:27.262Z,15.30
2022-10-04T04:31:00.142Z,15.30
2022-10-04T04:34:04.662Z,15.20
2022-10-04T04:36:39.516Z,15.30
2022-10-04T04:39:39.983Z,15.30
2022-10-04T04:42:16.193Z,15.30
2022-10-04T04:45:00.329Z,15.30
2022-10-04T04:47:30.529Z,15.30
2022-10-04T04:50:06.284Z,15.40
2022-10-04T04:52:34.935Z,15.40
2022-10-04T04:55:03.068Z,15.40
2022-10-04T04:57:30.380Z,15.40
2022-10-04T05:00:01.110Z,15.40
2022-10-04T05:02:31.199Z,15.30
2022-10-04T05:05:18.233Z,15.30
2022-10-04T05:07:45.507Z,15.30
2022-10-04T05:10:32.924Z,15.30
2022-10-04T05:13:01.979Z,15.30
2022-10-04T05:15:37.214Z,15.30
2022-10-04T05:18:17.908Z,15.30
2022-10-04T05:20:52.452Z,15.30
2022-10-04T05:23:19.797Z,15.30
2022-10-04T05:25:47.592Z,15.30
2022-10-04T05:28:15.474Z,15.20
2022-10-04T05:30:48.828Z,15.20
2022-10-04T05:33:24.475Z,15.20
2022-10-04T05:36:09.794Z,15.10
2022-10-04T05:39:06.262Z,15.10
2022-10-04T05:41:55.126Z,15.10
2022-10-04T05:44:35.356Z,15.10
2022-10-04T05:47:07.384Z,15.10
2022-10-04T05:49:43.951Z,15.10
2022-10-04T05:52:24.863Z,15.10
2022-10-04T05:55:23.917Z,15.10
2022-10-04T05:57:57.644Z,15.10
2022-10-04T06:00:39.903Z,15.10
2022-10-04T06:03:28.167Z,15.10
2022-10-04T06:06:00.792Z,15.10
2022-10-04T06:08:43.736Z,15.20
2022-10-04T06:11:30.332Z,15.20
2022-10-04T06:14:30.621Z,15.20
2022-10-04T06:17:16.554Z,15.20
2022-10-04T06:20:05.420Z,15.20
2022-10-04T06:22:33.331Z,15.20
2022-10-04T06:25:05.923Z,15.20
2022-10-04T06:27:54.046Z,15.20
2022-10-04T06:30:21.854Z,15.20
2022-10-04T06:33:07.085Z,15.20
2022-10-04T06:36:09.526Z,15.20
2022-10-04T06:39:03.441Z,15.20
2022-10-04T06:41:50.231Z,15.20
2022-10-04T06:44:46.522Z,15.30
2022-10-04T06:47:39.904Z,15.30
2022-10-04T06:50:46.645Z,15.30
2022-10-04T06:53:51.211Z,15.30
2022-10-04T06:56:30.582Z,15.30
2022-10-04T06:59:11.169Z,15.40
2022-10-04T07:01:52.082Z,15.40
2022-10-04T07:04:50.002Z,15.40
2022-10-04T07:07:36.105Z,15.40
2022-10-04T07:10:32.603Z,15.40
2022-10-04T07:13:04.330Z,15.40
2022-10-04T07:15:48.031Z,15.40
2022-10-04T07:18:22.559Z,15.50
2022-10-04T07:21:40.763Z,15.40
2022-10-04T07:24:12.453Z,15.40
2022-10-04T07:26:51.003Z,15.40
2022-10-04T07:29:28.941Z,15.40
2022-10-04T07:32:05.682Z,15.40
2022-10-04T07:34:43.326Z,15.40
2022-10-04T07:37:13.048Z,15.40
2022-10-04T07:39:52.226Z,15.40
2022-10-04T07:42:48.653Z,15.40
2022-10-04T07:45:42.280Z,15.40
2022-10-04T07:48:24.824Z,15.40
2022-10-04T07:51:10.072Z,15.40
2022-10-04T07:54:06.616Z,15.40
2022-10-04T07:56:40.028Z,15.40
2022-10-04T07:59:38.275Z,15.40
2022-10-04T08:02:30.984Z,15.40
2022-10-04T08:05:10.572Z,15.40
2022-10-04T08:08:23.679Z,15.40
2022-10-04T08:11:15.405Z,15.30
2022-10-04T08:13:56.599Z,15.30
2022-10-04T08:16:50.090Z,15.30
2022-10-04T08:19:45.545Z,15.30
2022-10-04T08:22:54.842Z,15.30
2022-10-04T08:25:47.099Z,15.30
2022-10-04T08:28:41.866Z,15.30
2022-10-04T08:31:31.192Z,15.30
2022-10-04T08:34:36.494Z,15.30
2022-10-04T08:37:42.576Z,15.30
2022-10-04T08:40:48.199Z,15.30
2022-10-04T08:43:30.875Z,15.30
2022-10-04T08:46:01.010Z,15.30
2022-10-04T08:49:06.863Z,15.30
2022-10-04T08:52:02.820Z,15.30
2022-10-04T08:55:06.670Z,15.30
2022-10-04T08:57:33.847Z,15.30
2022-10-04T09:00:31.742Z,15.30
2022-10-04T09:03:07.625Z,15.30
2022-10-04T09:06:00.449Z,15.30
2022-10-04T09:08:33.278Z,15.20
2022-10-04T09:11:12.426Z,15.20
2022-10-04T09:14:03.808Z,15.20
2022-10-04T09:16:58.023Z,15.20
2022-10-04T09:19:50.301Z,15.20
2022-10-04T09:22:26.768Z,15.10
2022-10-04T09:25:03.489Z,15.10
2022-10-04T09:27:54.950Z,15.10
2022-10-04T09:30:51.600Z,15.10
2022-10-04T09:33:33.897Z,15.10
2022-10-04T09:36:12.867Z,15.10
2022-10-04T09:39:28.255Z,15.10
2022-10-04T09:42:33.758Z,15.10
2022-10-04T09:45:34.213Z,15.10
2022-10-04T09:48:22.217Z,15.10
2022-10-04T09:51:19.351Z,15.20
2022-10-04T09:54:02.190Z,15.20
2022-10-04T09:56:51.568Z,15.20
2022-10-04T09:59:41.499Z,15.30
2022-10-04T10:02:40.410Z,15.30
2022-10-04T10:05:36.965Z,15.30
2022-10-04T10:08:16.289Z,15.30
2022-10-04T10:11:29.912Z,15.40
2022-10-04T10:14:26.322Z,15.50
2022-10-04T10:17:05.416Z,15.50
2022-10-04T10:19:57.273Z,15.50
2022-10-04T10:22:52.785Z,15.50
2022-10-04T10:25:40.511Z,15.50
2022-10-04T10:28:50.499Z,15.60
2022-10-04T10:31:26.998Z,15.60
2022-10-04T10:34:14.169Z,15.60
2022-10-04T10:37:03.033Z,15.50
2022-10-04T10:40:04.519Z,15.50
2022-10-04T10:42:43.460Z,15.50
2022-10-04T10:46:03.351Z,15.50
2022-10-04T10:48:53.981Z,15.50
2022-10-04T10:52:12.023Z,15.50
2022-10-04T10:55:11.272Z,15.50
2022-10-04T10:58:23.026Z,15.50
2022-10-04T11:00:50.513Z,15.40
2022-10-04T11:03:33.695Z,15.40
2022-10-04T11:06:30.918Z,15.40
2022-10-04T11:09:20.158Z,15.40
2022-10-04T11:12:04.298Z,15.40
2022-10-04T11:14:55.784Z,15.40
2022-10-04T11:17:47.470Z,15.40
2022-10-04T11:20:42.642Z,15.40
2022-10-04T11:23:15.718Z,15.40
2022-10-04T11:25:58.332Z,15.40
2022-10-04T11:28:28.654Z,15.40
2022-10-04T11:30:58.858Z,15.40
2022-10-04T11:33:55.878Z,15.40
2022-10-04T11:36:38.356Z,15.40
2022-10-04T11:39:08.696Z,15.50
2022-10-04T11:42:03.576Z,15.50
2022-10-04T11:44:33.788Z,15.50
2022-10-04T11:47:25.159Z,15.50
2022-10-04T11:50:01.215Z,15.60
2022-10-04T11:52:37.175Z,15.60
2022-10-04T11:55:32.284Z,15.60
2022-10-04T11:58:14.659Z,15.70
2022-10-04T12:01:11.452Z,15.70
2022-10-04T12:04:18.214Z,15.70
2022-10-04T12:07:08.393Z,15.80
2022-10-04T12:09:49.548Z,15.80
2022-10-04T12:12:38.006Z,15.80
2022-10-04T12:15:33.157Z,15.90
2022-10-04T12:18:34.402Z,15.90
2022-10-04T12:21:36.201Z,16.00
2022-10-04T12:24:21.803Z,16.00
2022-10-04T12:27:20.032Z,16.10
2022-10-04T12:30:25.031Z,16.10
2022-10-04T12:33:10.230Z,16.20
2022-10-04T12:35:55.215Z,16.20
2022-10-04T12:38:48.695Z,16.30
2022-10-04T12:41:30.939Z,16.30
2022-10-04T12:44:07.997Z,16.30
2022-10-04T12:47:07.661Z,16.30
2022-10-04T12:50:26.281Z,16.30
2022-10-04T12:53:12.105Z,16.30
2022-10-04T12:55:50.688Z,16.30
2022-10-04T12:59:05.702Z,16.30
2022-10-04T13:02:24.918Z,16.30
2022-10-04T13:05:03.414Z,16.30
2022-10-04T13:07:43.003Z,16.20
2022-10-04T13:10:36.682Z,16.20
2022-10-04T13:13:47.176Z,16.20
2022-10-04T13:19:34.914Z,16.20
2022-10-04T13:22:37.599Z,16.20
2022-10-04T13:25:42.327Z,16.20
2022-10-04T13:28:37.374Z,16.20
2022-10-04T13:31:21.945Z,16.20
2022-10-04T13:34:09.578Z,16.20
2022-10-04T13:36:42.614Z,16.20
2022-10-04T13:39:09.939Z,16.20
2022-10-04T13:41:49.727Z,16.20
2022-10-04T13:44:24.150Z,16.20
2022-10-04T13:47:05.086Z,16.20
2022-10-04T13:49:54.019Z,16.20
2022-10-04T13:53:17.216Z,16.20
2022-10-04T13:56:21.135Z,16.20
2022-10-04T13:58:53.646Z,16.20
2022-10-04T14:01:39.583Z,16.20
2022-10-04T14:04:57.216Z,16.10
2022-10-04T14:07:43.061Z,16.10
2022-10-04T14:10:51.716Z,16.10
2022-10-04T14:13:36.878Z,16.10
2022-10-04T14:16:19.287Z,16.10
2022-10-04T14:19:04.221Z,16.10
2022-10-04T14:21:54.359Z,16.10
2022-10-04T14:24:59.280Z,16.10
2022-10-04T14:28:07.769Z,16.10
2022-10-04T14:30:43.053Z,16.10
2022-10-04T14:33:26.094Z,16.10
2022-10-04T14:36:08.757Z,16.10
2022-10-04T14:39:14.070Z,16.10
2022-10-04T14:42:03.529Z,16.10
2022-10-04T14:44:45.141Z,16.00
2022-10-04T14:47:34.793Z,16.00
2022-10-04T14:50:07.856Z,16.00
2022-10-04T14:52:53.777Z,15.90
2022-10-04T14:55:45.936Z,15.90
2022-10-04T14:58:43.360Z,15.80
2022-10-04T15:01:27.956Z,15.70
2022-10-04T15:04:17.300Z,15.50
2022-10-04T15:06:58.527Z,15.40
2022-10-04T15:09:46.619Z,15.30
2022-10-04T15:13:08.772Z,15.20
2022-10-04T15:15:32.142Z,15.10
2022-10-04T15:18:13.654Z,15.10
2022-10-04T15:21:01.427Z,15.10
2022-10-04T15:23:38.213Z,15.00
2022-10-04T15:26:12.324Z,14.90
2022-10-04T15:28:54.814Z,14.90
2022-10-04T15:31:52.465Z,14.90
2022-10-04T15:34:46.442Z,14.90
2022-10-04T15:37:37.263Z,14.90
2022-10-04T15:40:23.582Z,14.80
2022-10-04T15:43:25.822Z,14.80
2022-10-04T15:46:07.380Z,14.80
2022-10-04T15:49:25.693Z,14.80
2022-10-04T15:52:06.722Z,14.80
2022-10-04T15:55:03.879Z,14.80
2022-10-04T15:57:55.184Z,14.80
2022-10-04T16:01:09.280Z,14.80
2022-10-04T16:04:11.555Z,14.80
2022-10-04T16:07:00.107Z,14.80
2022-10-04T16:09:48.473Z,14.80
2022-10-04T16:12:42.543Z,14.80
2022-10-04T16:15:39.058Z,14.80
2022-10-04T16:18:31.391Z,14.80
2022-10-04T16:21:30.941Z,14.80
2022-10-04T16:24:22.472Z,14.80
2022-10-04T16:26:52.397Z,14.80
2022-10-04T16:29:26.893Z,14.80
2022-10-04T16:32:21.324Z,14.70
2022-10-04T16:35:03.374Z,14.70
2022-10-04T16:37:36.367Z,14.70
2022-10-04T16:40:12.170Z,14.60
2022-10-04T16:42:45.495Z,14.50
2022-10-04T16:45:31.294Z,14.50
2022-10-04T16:48:05.067Z,14.40
2022-10-04T16:51:00.519Z,14.40
2022-10-04T16:54:25.484Z,14.30
2022-10-04T16:57:00.812Z,14.30
2022-10-04T16:59:41.669Z,14.30
2022-10-04T17:02:24.074Z,14.30
2022-10-04T17:05:26.073Z,14.20
2022-10-04T17:08:15.175Z,14.20
2022-10-04T17:11:07.251Z,14.20
2022-10-04T17:13:56.877Z,14.20
2022-10-04T17:16:38.955Z,14.10
2022-10-04T17:19:20.762Z,14.10
2022-10-04T17:22:07.115Z,14.10
2022-10-04T17:24:55.453Z,14.10
2022-10-04T17:27:26.727Z,14.00
2022-10-04T17:30:12.646Z,14.00
2022-10-04T17:32:48.798Z,14.00
2022-10-04T17:35:18.890Z,14.00
2022-10-04T17:38:01.413Z,14.00
2022-10-04T17:40:56.915Z,13.90
2022-10-04T17:43:59.852Z,13.90
2022-10-04T17:46:46.910Z,13.90
2022-10-04T17:49:47.276Z,13.90
2022-10-04T17:52:52.614Z,13.90
2022-10-04T17:55:39.469Z,13.80
2022-10-04T17:58:13.693Z,13.70
2022-10-04T18:00:53.975Z,13.70
2022-10-04T18:03:26.516Z,13.60
2022-10-04T18:06:24.173Z,13.50
2022-10-04T18:08:57.676Z,13.50
2022-10-04T18:11:47.386Z,13.40
2022-10-04T18:14:35.703Z,13.40
2022-10-04T18:17:09.154Z,13.30
2022-10-04T18:19:42.711Z,13.20
2022-10-04T18:22:15.189Z,13.20
2022-10-04T18:24:44.361Z,13.20
2022-10-04T18:27:25.455Z,13.10
2022-10-04T18:30:14.427Z,13.10
2022-10-04T18:32:53.004Z,13.00
2022-10-04T18:35:32.146Z,12.90
2022-10-04T18:38:05.446Z,12.90
2022-10-04T18:40:35.510Z,12.90
2022-10-04T18:43:02.659Z,12.90
2022-10-04T18:45:32.422Z,12.90
2022-10-04T18:48:02.177Z,12.90
2022-10-04T18:50:32.356Z,12.90
2022-10-04T18:53:33.600Z,12.90
2022-10-04T18:56:04.798Z,12.90
2022-10-04T18:58:50.454Z,12.90
2022-10-04T19:02:00.731Z,12.90
2022-10-04T19:04:45.210Z,12.80
2022-10-04T19:07:26.532Z,12.80
2022-10-04T19:09:53.641Z,12.80
2022-10-04T19:15:43.226Z,12.80
2022-10-04T19:18:27.418Z,12.80
2022-10-04T19:21:14.304Z,12.80
2022-10-04T19:24:11.661Z,12.80
2022-10-04T19:26:42.990Z,12.80
2022-10-04T19:29:41.300Z,12.80
2022-10-04T19:32:19.929Z,12.70
2022-10-04T19:35:05.507Z,12.70
2022-10-04T19:38:00.741Z,12.70
2022-10-04T19:40:28.034Z,12.70
2022-10-04T19:43:04.119Z,12.70
2022-10-04T19:45:48.908Z,12.70
2022-10-04T19:48:24.853Z,12.70
2022-10-04T19:51:00.640Z,12.70
2022-10-04T19:53:42.974Z,12.70
2022-10-04T19:56:19.558Z,12.60
2022-10-04T19:59:10.503Z,12.60
2022-10-04T20:01:38.811Z,12.60
2022-10-04T20:04:40.041Z,12.50
2022-10-04T20:07:28.144Z,12.50
2022-10-04T20:10:17.598Z,12.50
2022-10-04T20:13:13.434Z,12.50
2022-10-04T20:15:40.521Z,12.50
2022-10-04T20:18:32.596Z,12.50
2022-10-04T20:21:03.452Z,12.50
2022-10-04T20:23:40.341Z,12.50
2022-10-04T20:26:53.840Z,12.50
2022-10-04T20:29:37.115Z,12.50
2022-10-04T20:35:02.302Z,12.50
2022-10-04T20:37:44.881Z,12.50
2022-10-04T20:40:35.397Z,12.50
2022-10-04T20:43:15.072Z,12.50
2022-10-04T20:45:51.496Z,12.50
2022-10-04T20:48:26.472Z,12.50
2022-10-04T20:50:54.134Z,12.50
2022-10-04T20:53:27.032Z,12.50
2022-10-04T20:56:19.871Z,12.40
2022-10-04T20:58:55.934Z,12.40
2022-10-04T21:01:33.574Z,12.40
2022-10-04T21:04:43.369Z,12.40
2022-10-04T21:07:19.553Z,12.40
2022-10-04T21:09:47.565Z,12.40
2022-10-04T21:12:30.266Z,12.50
2022-10-04T21:15:14.518Z,12.50
2022-10-04T21:17:42.676Z,12.50
2022-10-04T21:20:43.359Z,12.50
2022-10-04T21:23:23.799Z,12.50
2022-10-04T21:25:51.010Z,12.50
2022-10-04T21:28:32.343Z,12.50
2022-10-04T21:31:01.168Z,12.50
2022-10-04T21:33:28.250Z,12.50
2022-10-04T21:35:55.394Z,12.50
2022-10-04T21:38:22.726Z,12.50
2022-10-04T21:40:50.278Z,12.50
2022-10-04T21:43:17.409Z,12.60
2022-10-04T21:45:44.730Z,12.60
2022-10-04T21:48:11.984Z,12.60
2022-10-04T21:50:39.214Z,12.60
2022-10-04T21:53:06.751Z,12.60
2022-10-04T21:55:34.115Z,12.50
2022-10-04T21:58:01.249Z,12.50
2022-10-04T22:00:31.260Z,12.50
2022-10-04T22:02:58.625Z,12.50
2022-10-04T22:05:26.014Z,12.50
2022-10-04T22:07:53.215Z,12.50
2022-10-04T22:10:20.417Z,12.50
2022-10-04T22:12:48.158Z,12.50
2022-10-04T22:15:15.391Z,12.40
2022-10-04T22:17:42.817Z,12.40
2022-10-04T22:20:10.087Z,12.50
2022-10-04T22:22:39.684Z,12.50
2022-10-04T22:25:19.253Z,12.50
2022-10-04T22:27:47.456Z,12.50
2022-10-04T22:30:26.669Z,12.50
2022-10-04T22:32:59.147Z,12.40
2022-10-04T22:35:30.815Z,12.40
2022-10-04T22:37:59.736Z,12.40
2022-10-04T22:40:28.656Z,12.40
2022-10-04T22:42:59.130Z,12.40
2022-10-04T22:45:29.504Z,12.40
2022-10-04T22:47:59.432Z,12.40
2022-10-04T22:50:26.484Z,12.40
2022-10-04T22:52:53.736Z,12.40
2022-10-04T22:55:21.207Z,12.40
2022-10-04T22:57:48.357Z,12.40
2022-10-04T23:00:15.776Z,12.40
2022-10-04T23:02:43.043Z,12.40
2022-10-04T23:05:16.795Z,12.40
2022-10-04T23:07:45.392Z,12.40
2022-10-04T23:10:14.438Z,12.40
2022-10-04T23:12:45.890Z,12.30
2022-10-04T23:15:19.831Z,12.30
2022-10-04T23:17:54.377Z,12.30
2022-10-04T23:20:22.747Z,12.40
2022-10-04T23:22:52.364Z,12.40
2022-10-04T23:25:25.045Z,12.40
2022-10-04T23:27:52.583Z,12.40
2022-10-04T23:30:21.718Z,12.40
2022-10-04T23:32:52.063Z,12.30
2022-10-04T23:35:29.799Z,12.30
2022-10-04T23:37:57.108Z,12.30
2022-10-04T23:40:25.873Z,12.30
2022-10-04T23:42:56.542Z,12.30
2022-10-04T23:45:25.607Z,12.30
2022-10-04T23:47:56.190Z,12.30
2022-10-04T23:50:31.620Z,12.30
2022-10-04T23:53:04.549Z,12.30
2022-10-04T23:55:38.612Z,12.30
2022-10-04T23:58:28.636Z,12.40
